Sea Cloud II — 9HUE6 — position and weather

sailwx.info

Track history (hours):
 
Tides and Currents Weather Stations Pressure Air Temp Water Temp Dewpoint Dewpoint Depression Visibility Wind Speed Wind Dir Waves Ship Positions

Sea Cloud II

Ship's website: http://www.seacloud.com/en/the-ships/sea-cloud-ii.html

Last reported at 2017-Jun-23 11:50 UTC. Time now 2017-Jun-23 20:37 UTC.
Position N 55°46' W 006°52'.

Length 117 m; draft 6 m.

Type: Passenger vessel. MMSI: 248953000.

Date/timePositionNaut miles runAvg speedWind from/ knotsBaromVisibWave heightAir tempDewpointWater temp
2017-Jun-23 11:50N 55°46' W 006°52'4 8.8
2017-Jun-23 11:25N 55°42' W 006°51'4 8.1
2017-Jun-23 10:58N 55°39' W 006°50'4 7.7
2017-Jun-23 10:30N 55°35' W 006°48'4 7.3
2017-Jun-23 09:56N 55°31' W 006°47'3 7.1
2017-Jun-23 09:30N 55°28' W 006°47'3 6.5
2017-Jun-23 09:00N 55°25' W 006°48'3 5.5
2017-Jun-23 08:23N 55°21' W 006°47'3 8.0
2017-Jun-23 08:00N 55°19' W 006°43'5 9.5
2017-Jun-23 07:30N 55°14' W 006°41'2 4.4
2017-Jun-23 07:00N 55°13' W 006°39'0 0.0
2017-Jun-23 06:30N 55°13' W 006°39'0 0.1
2017-Jun-23 06:00N 55°13' W 006°39'0 0.0
2017-Jun-23 05:27N 55°13' W 006°39'0 0.1
2017-Jun-23 05:00N 55°13' W 006°39'2 4.4
2017-Jun-23 04:29N 55°15' W 006°38'3 5.4
2017-Jun-23 03:59N 55°17' W 006°40'3 5.2
2017-Jun-23 03:29N 55°19' W 006°37'3 6.3
2017-Jun-23 03:00N 55°21' W 006°33'5 9.3
2017-Jun-23 02:30N 55°24' W 006°26'3 6.4
2017-Jun-23 02:00N 55°26' W 006°22'3 5.7
2017-Jun-23 01:30N 55°27' W 006°18'3 5.5
2017-Jun-23 01:00N 55°27' W 006°13'3 5.7
2017-Jun-23 00:30N 55°26' W 006°08'3 5.5
2017-Jun-23 00:00N 55°25' W 006°04'3 6.4
2017-Jun-22 23:30N 55°22' W 006°00'3 6.6
2017-Jun-22 23:00N 55°19' W 005°57'3 6.5
2017-Jun-22 22:30N 55°17' W 005°53'4 7.5
2017-Jun-22 22:00N 55°13' W 005°51'4 7.3
2017-Jun-22 21:30N 55°10' W 005°48'21 9.0
2017-Jun-22 19:13N 54°51' W 005°35'2 9.1
2017-Jun-22 19:00N 54°49' W 005°36'5 9.3
2017-Jun-22 18:30N 54°45' W 005°38'510.0
2017-Jun-22 18:00N 54°42' W 005°45'5 9.4
2017-Jun-22 17:30N 54°39' W 005°51'3 5.7
2017-Jun-22 17:00N 54°37' W 005°55'0 0.2
2017-Jun-22 16:27N 54°37' W 005°55'0 0.0
2017-Jun-22 16:00N 54°37' W 005°55'0 0.0
2017-Jun-22 15:09N 54°37' W 005°55'0 0.0
2017-Jun-22 14:57N 54°37' W 005°55'0 0.0
2017-Jun-22 13:45N 54°37' W 005°55'0 0.0
2017-Jun-22 13:30N 54°37' W 005°55'0 0.0
2017-Jun-22 12:54N 54°37' W 005°55'0 0.0
2017-Jun-22 12:24N 54°37' W 005°55'0 0.0
2017-Jun-22 12:00N 54°37' W 005°55'0 0.0
2017-Jun-22 11:30N 54°37' W 005°55'0 0.0
2017-Jun-22 11:00N 54°37' W 005°55'0 0.0
2017-Jun-22 10:15N 54°37' W 005°55'0 0.0
2017-Jun-22 10:00N 54°37' W 005°55'0 0.0
2017-Jun-22 09:24N 54°37' W 005°55'0 0.0
2017-Jun-22 08:09N 54°37' W 005°55'0 0.0
2017-Jun-22 07:51N 54°37' W 005°55'0 0.0
2017-Jun-22 07:24N 54°37' W 005°55'0 0.0
2017-Jun-22 07:00N 54°37' W 005°55'0 0.0
2017-Jun-22 06:27N 54°37' W 005°55'0 0.0
2017-Jun-22 05:46N 54°37' W 005°55'1 2.1
2017-Jun-22 05:29N 54°37' W 005°54'2 3.2
2017-Jun-22 04:58N 54°38' W 005°52'510.8
2017-Jun-22 04:31N 54°42' W 005°46'4 7.5
2017-Jun-22 04:00N 54°43' W 005°39'3 6.3
2017-Jun-22 03:30N 54°43' W 005°34'3 6.8
2017-Jun-22 03:00N 54°43' W 005°28'4 8.0
2017-Jun-22 02:30N 54°39' W 005°26'4 7.1
2017-Jun-22 02:00N 54°35' W 005°24'4 7.3
2017-Jun-22 01:30N 54°32' W 005°23'4 7.2
2017-Jun-22 01:00N 54°29' W 005°21'4 7.1
2017-Jun-22 00:31N 54°25' W 005°19'5 9.4
2017-Jun-22 00:01N 54°20' W 005°19'510.6
2017-Jun-21 23:30N 54°15' W 005°21'510.1
2017-Jun-21 23:00N 54°11' W 005°26'3 6.5
2017-Jun-21 22:31N 54°08' W 005°28'3 6.4
2017-Jun-21 22:00N 54°05' W 005°30'136 3.2
2017-Jun-20 03:58N 51°57' W 006°45'510.8
2017-Jun-20 03:30N 51°56' W 006°53'510.7
2017-Jun-20 03:00N 51°55' W 007°01'510.8
2017-Jun-20 02:30N 51°53' W 007°10'510.8
2017-Jun-20 02:00N 51°52' W 007°18'510.7
2017-Jun-20 01:30N 51°51' W 007°27'510.7
2017-Jun-20 01:00N 51°49' W 007°35'510.6
2017-Jun-20 00:30N 51°48' W 007°43'510.7
2017-Jun-20 00:00N 51°47' W 007°52'510.8
2017-Jun-19 23:30N 51°46' W 008°00'510.9
2017-Jun-19 23:00N 51°45' W 008°09'5 9.4
2017-Jun-19 22:30N 51°47' W 008°16'4 7.7
2017-Jun-19 22:00N 51°51' W 008°17'1 1.1
2017-Jun-19 21:30N 51°51' W 008°18'0 0.0
2017-Jun-19 20:53N 51°51' W 008°18'0 0.0
2017-Jun-19 20:29N 51°51' W 008°18'0 0.0
2017-Jun-19 19:59N 51°51' W 008°18'0 0.0
2017-Jun-19 19:29N 51°51' W 008°18'0 0.0
2017-Jun-19 18:59N 51°51' W 008°18'0 0.0
2017-Jun-19 18:29N 51°51' W 008°18'0 0.0
2017-Jun-19 17:59N 51°51' W 008°18'0 0.0
2017-Jun-19 17:29N 51°51' W 008°18'0 0.0
2017-Jun-19 16:59N 51°51' W 008°18'0 0.0
2017-Jun-19 16:29N 51°51' W 008°18'0 0.0
2017-Jun-19 15:59N 51°51' W 008°18'0 0.0
2017-Jun-19 15:29N 51°51' W 008°18'0 0.0
2017-Jun-19 14:56N 51°51' W 008°18'0 0.0
2017-Jun-19 14:29N 51°51' W 008°18'0 0.0
2017-Jun-19 13:29N 51°51' W 008°18'0 0.0
2017-Jun-19 12:59N 51°51' W 008°18'0 0.0
2017-Jun-19 12:29N 51°51' W 008°18'0 0.0
2017-Jun-19 11:59N 51°51' W 008°18'0 0.0
2017-Jun-19 11:30N 51°51' W 008°18'1 1.2
2017-Jun-19 11:00N 51°51' W 008°17'2 4.8
2017-Jun-19 10:30N 51°49' W 008°16'4 8.3
2017-Jun-19 10:00N 51°45' W 008°14'3 6.7
2017-Jun-19 09:30N 51°42' W 008°10'2 3.2
2017-Jun-19 09:00N 51°41' W 008°08'1 2.7
2017-Jun-19 08:30N 51°40' W 008°07'1 2.3
2017-Jun-19 08:00N 51°40' W 008°05'1 2.1
2017-Jun-19 07:30N 51°39' W 008°04'2 3.1
2017-Jun-19 07:00N 51°38' W 008°02'3 6.9
2017-Jun-19 06:30N 51°35' W 008°02'3 6.1
2017-Jun-19 06:00N 51°31' W 008°01'3 6.6
2017-Jun-19 05:30N 51°29' W 007°58'3 6.8
2017-Jun-19 05:00N 51°26' W 007°55'3 6.9
2017-Jun-19 04:30N 51°23' W 007°52'3 6.7
2017-Jun-19 04:00N 51°20' W 007°49'3 6.7
2017-Jun-19 03:30N 51°17' W 007°47'3 6.6
2017-Jun-19 03:00N 51°14' W 007°44'3 6.7
2017-Jun-19 02:30N 51°12' W 007°41'3 6.6
2017-Jun-19 02:00N 51°09' W 007°38'3 6.7
2017-Jun-19 01:30N 51°06' W 007°35'3 6.6
2017-Jun-19 01:00N 51°03' W 007°32'3 6.8
2017-Jun-19 00:30N 51°00' W 007°30'3 6.8
2017-Jun-19 00:00N 50°58' W 007°27'3 6.8
2017-Jun-18 23:30N 50°55' W 007°24'3 6.4
2017-Jun-18 22:59N 50°52' W 007°21'3 6.5
2017-Jun-18 22:30N 50°49' W 007°18'9 6.5
2017-Jun-18 21:02N 50°42' W 007°09'0 7.7
2017-Jun-18 21:00N 50°42' W 007°09'510.7
2017-Jun-18 20:30N 50°37' W 007°06'510.8
2017-Jun-18 20:00N 50°32' W 007°02'510.7
2017-Jun-18 19:30N 50°27' W 006°59'510.7
2017-Jun-18 19:00N 50°22' W 006°56'510.7
2017-Jun-18 18:30N 50°17' W 006°52'510.7
2017-Jun-18 18:00N 50°12' W 006°49'10 5.6
2017-Jun-18 16:17N 50°04' W 006°40'1 2.7
2017-Jun-18 15:59N 50°04' W 006°38'1 2.6
2017-Jun-18 15:30N 50°04' W 006°37'6 3.0
2017-Jun-18 13:38N 49°60' W 006°30'1 3.7
2017-Jun-18 13:30N 49°59' W 006°30'7 1.5
2017-Jun-18 08:26N 49°56' W 006°20'0 0.0
2017-Jun-18 07:23N 49°56' W 006°20'0 0.0
2017-Jun-18 06:56N 49°56' W 006°20'0 0.1
2017-Jun-18 06:28N 49°56' W 006°20'7 4.2
2017-Jun-18 04:44N 49°53' W 006°10'1 6.6
2017-Jun-18 04:30N 49°53' W 006°07'4 7.4
2017-Jun-18 04:00N 49°53' W 006°02'4 7.4
2017-Jun-18 03:30N 49°54' W 005°56'71 7.6
2017-Jun-17 18:07N 49°57' W 004°05'310.8
2017-Jun-17 17:52N 49°58' W 004°01'810.5
2017-Jun-17 17:09N 49°59' W 003°50'211.6
2017-Jun-17 17:00N 49°60' W 003°48'611.7
2017-Jun-17 16:30N 50°05' W 003°42'611.6
2017-Jun-17 16:00N 50°09' W 003°37'611.2
2017-Jun-17 15:30N 50°14' W 003°32'5 9.4
2017-Jun-17 15:00N 50°19' W 003°33'3 2.8
2017-Jun-17 14:00N 50°21' W 003°34'0 0.0
2017-Jun-17 13:30N 50°21' W 003°35'0 0.0
2017-Jun-17 12:48N 50°21' W 003°35'0 0.0
2017-Jun-17 12:21N 50°21' W 003°34'0 0.0
2017-Jun-17 12:00N 50°21' W 003°34'0 0.0
2017-Jun-17 11:21N 50°21' W 003°35'0 0.0
2017-Jun-17 10:57N 50°21' W 003°34'0 0.0
2017-Jun-17 10:27N 50°21' W 003°34'0 0.0
2017-Jun-17 09:57N 50°21' W 003°34'0 0.0
2017-Jun-17 09:27N 50°21' W 003°34'0 0.0
2017-Jun-17 08:54N 50°21' W 003°34'0 0.0
2017-Jun-17 08:27N 50°21' W 003°34'0 0.0
2017-Jun-17 07:57N 50°21' W 003°34'0 0.0
2017-Jun-17 07:09N 50°21' W 003°34'0 0.0
2017-Jun-17 06:54N 50°21' W 003°34'0 1.3
2017-Jun-17 06:30N 50°22' W 003°35'2 4.6
2017-Jun-17 06:00N 50°20' W 003°33'3 5.4
2017-Jun-17 05:30N 50°17' W 003°30'2 5.0
2017-Jun-17 05:00N 50°16' W 003°27'2 3.8
2017-Jun-17 04:31N 50°14' W 003°26'3 5.4
2017-Jun-17 04:00N 50°12' W 003°24'3 6.7
2017-Jun-17 03:30N 50°09' W 003°20'3 6.7
2017-Jun-17 03:00N 50°07' W 003°17'3 6.7
2017-Jun-17 02:30N 50°04' W 003°14'2 4.4
2017-Jun-17 02:00N 50°02' W 003°11'2 3.0
2017-Jun-17 01:30N 50°01' W 003°10'2 3.0
2017-Jun-17 01:00N 50°00' W 003°08'2 3.0
2017-Jun-17 00:30N 49°59' W 003°07'3 5.0
2017-Jun-17 00:00N 49°57' W 003°05'3 6.9
2017-Jun-16 23:30N 49°54' W 003°02'3 6.0
2017-Jun-16 23:00N 49°52' W 002°59'3 5.7
2017-Jun-16 22:30N 49°49' W 002°56'3 5.8
2017-Jun-16 22:01N 49°47' W 002°53'3 5.5
2017-Jun-16 21:30N 49°45' W 002°50'1 2.7
2017-Jun-16 21:00N 49°44' W 002°49'2 3.1
2017-Jun-16 20:31N 49°43' W 002°47'3 5.0
2017-Jun-16 19:56N 49°41' W 002°43'3 5.7
2017-Jun-16 19:30N 49°40' W 002°41'3 5.7
2017-Jun-16 19:00N 49°38' W 002°38'3 5.6
2017-Jun-16 18:29N 49°36' W 002°34'3 6.2
2017-Jun-16 18:01N 49°34' W 002°31'6 4.9
2017-Jun-16 16:45N 49°28' W 002°31'0 0.1
2017-Jun-16 16:24N 49°28' W 002°31'0 0.0
2017-Jun-16 16:00N 49°28' W 002°31'0 0.0
2017-Jun-16 15:30N 49°28' W 002°31'0 0.0
2017-Jun-16 15:00N 49°28' W 002°31'0 0.0
2017-Jun-16 14:24N 49°28' W 002°31'0 0.0
2017-Jun-16 13:12N 49°28' W 002°31'0 0.1
2017-Jun-16 13:00N 49°28' W 002°31'0 0.0
2017-Jun-16 12:24N 49°28' W 002°31'0 0.1
2017-Jun-16 12:00N 49°28' W 002°31'53 3.6
2017-Jun-15 21:28N 48°39' W 002°01'0 0.0
2017-Jun-15 14:53N 48°39' W 002°01'3 0.6
2017-Jun-15 09:11N 48°41' W 002°06'4 4.8
2017-Jun-15 08:20N 48°44' W 002°08'2 4.6
2017-Jun-15 07:52N 48°46' W 002°11'2 4.9
2017-Jun-15 07:30N 48°47' W 002°12'3 5.7
2017-Jun-15 07:01N 48°49' W 002°15'3 5.3
2017-Jun-15 06:31N 48°51' W 002°18'4 5.1
2017-Jun-15 05:48N 48°53' W 002°22'2 5.9
2017-Jun-15 05:28N 48°55' W 002°23'3 6.3
2017-Jun-15 04:58N 48°58' W 002°23'4 7.1
2017-Jun-15 04:25N 49°02' W 002°23'3 8.1
2017-Jun-15 04:00N 49°06' W 002°23'510.9
2017-Jun-15 03:30N 49°11' W 002°23'610.9
2017-Jun-15 03:00N 49°16' W 002°23'710.5
2017-Jun-15 02:22N 49°22' W 002°17'410.9
2017-Jun-15 01:59N 49°25' W 002°13'510.4
2017-Jun-15 01:28N 49°30' W 002°11'710.8
2017-Jun-15 00:46N 49°38' W 002°08'6 9.6
2017-Jun-15 00:10N 49°43' W 002°04'4 8.1
2017-Jun-14 23:40N 49°45' W 001°59'1 6.6
2017-Jun-14 23:28N 49°46' W 001°57'3 6.3
2017-Jun-14 23:00N 49°46' W 001°53'3 7.0
2017-Jun-14 22:30N 49°46' W 001°47'4 8.2
2017-Jun-14 22:00N 49°46' W 001°41'4 8.7
2017-Jun-14 21:30N 49°47' W 001°34'4 8.8
2017-Jun-14 21:00N 49°47' W 001°28'4 8.3
2017-Jun-14 20:30N 49°46' W 001°21'5 9.0
2017-Jun-14 20:00N 49°45' W 001°14'611.0
2017-Jun-14 19:30N 49°43' W 001°06'712.0
2017-Jun-14 18:58N 49°41' W 000°57'612.6
2017-Jun-14 18:29N 49°39' W 000°48'613.0
2017-Jun-14 18:00N 49°37' W 000°39'713.3
2017-Jun-14 17:30N 49°35' W 000°29'713.1
2017-Jun-14 17:00N 49°33' W 000°20'612.5
2017-Jun-14 16:30N 49°31' W 000°11'611.9
2017-Jun-14 16:00N 49°28' W 000°02'510.2
2017-Jun-14 15:30N 49°26' E 000°05'611.7
2017-Jun-14 15:01N 49°26' E 000°14'0 0.3
2017-Jun-14 13:58N 49°26' E 000°14'0 0.0
2017-Jun-14 13:28N 49°26' E 000°14'0 0.0
2017-Jun-14 12:58N 49°26' E 000°14'0 0.0
2017-Jun-14 12:28N 49°26' E 000°14'0 0.0
2017-Jun-14 11:58N 49°26' E 000°14'0 0.0
2017-Jun-14 11:28N 49°26' E 000°14'0 0.0
2017-Jun-14 10:58N 49°26' E 000°14'0 0.0
2017-Jun-14 10:28N 49°26' E 000°14'0 0.0
2017-Jun-14 09:58N 49°26' E 000°14'0 0.0
2017-Jun-14 09:28N 49°26' E 000°14'0 0.0
2017-Jun-14 08:58N 49°26' E 000°14'0 0.0
2017-Jun-14 08:28N 49°26' E 000°14'0 0.0
2017-Jun-14 07:58N 49°26' E 000°14'0 0.0
2017-Jun-14 07:28N 49°26' E 000°14'0 0.0
2017-Jun-14 06:58N 49°26' E 000°14'0 0.0
2017-Jun-14 06:28N 49°26' E 000°14'0 0.0
2017-Jun-14 05:58N 49°26' E 000°14'0 0.0
2017-Jun-14 05:28N 49°26' E 000°14'0 0.8
2017-Jun-14 05:00N 49°26' E 000°14'3 6.7
2017-Jun-14 04:31N 49°26' E 000°09'3 6.9
2017-Jun-14 04:01N 49°27' E 000°03'4 8.4
2017-Jun-14 03:31N 49°28' W 000°03'3 6.1
2017-Jun-14 03:00N 49°29' W 000°07'3 6.7
2017-Jun-14 02:30N 49°31' W 000°12'3 6.6
2017-Jun-14 02:00N 49°32' W 000°16'3 6.6
2017-Jun-14 01:30N 49°33' W 000°21'3 6.7
2017-Jun-14 01:01N 49°34' W 000°26'3 6.8
2017-Jun-14 00:31N 49°35' W 000°31'2 4.2
2017-Jun-14 00:00N 49°36' W 000°34'2 4.4
2017-Jun-13 23:31N 49°37' W 000°37'4 7.7
2017-Jun-13 23:00N 49°38' W 000°43'4 8.2
2017-Jun-13 22:31N 49°39' W 000°49'3 5.7
2017-Jun-13 22:00N 49°40' W 000°53'3 5.3
2017-Jun-13 21:31N 49°41' W 000°57'3 5.5
2017-Jun-13 21:01N 49°42' W 001°01'3 5.7
2017-Jun-13 20:31N 49°43' W 001°05'4 7.7
2017-Jun-13 20:00N 49°44' W 001°11'5 9.1
2017-Jun-13 19:31N 49°46' W 001°17'4 8.1
2017-Jun-13 19:01N 49°46' W 001°23'4 7.3
2017-Jun-13 18:30N 49°45' W 001°29'3 6.3
2017-Jun-13 18:00N 49°44' W 001°33'3 5.5
2017-Jun-13 17:31N 49°43' W 001°37'3 5.2
2017-Jun-13 17:01N 49°41' W 001°40'3 6.1
2017-Jun-13 16:31N 49°39' W 001°37'0 0.0
2017-Jun-13 16:00N 49°39' W 001°37'0 0.0
2017-Jun-13 15:30N 49°39' W 001°37'0 0.0
2017-Jun-13 15:00N 49°39' W 001°37'0 0.0
2017-Jun-13 14:30N 49°39' W 001°37'0 0.0
2017-Jun-13 13:30N 49°39' W 001°37'0 0.0
2017-Jun-13 12:57N 49°39' W 001°37'0 0.0
2017-Jun-13 12:30N 49°39' W 001°37'0 0.0
2017-Jun-13 12:00N 49°39' W 001°37'  
Track history (hours):
 
Tides and Currents Weather Stations Pressure Air Temp Water Temp Dewpoint Dewpoint Depression Visibility Wind Speed Wind Dir Waves Ship Positions

Sea Cloud II

Ship's website: http://www.seacloud.com/en/the-ships/sea-cloud-ii.html

Last reported at 2017-Jun-23 11:50 UTC. Time now 2017-Jun-23 20:37 UTC.
Position N 55°46' W 006°52'.

Length 117 m; draft 6 m.

Type: Passenger vessel. MMSI: 248953000.

Date/timePositionNaut miles runAvg speedWind from/ knotsBaromVisibWave heightAir tempDewpointWater temp
2017-Jun-23 11:50N 55°46' W 006°52'4 8.8
2017-Jun-23 11:25N 55°42' W 006°51'4 8.1
2017-Jun-23 10:58N 55°39' W 006°50'4 7.7
2017-Jun-23 10:30N 55°35' W 006°48'4 7.3
2017-Jun-23 09:56N 55°31' W 006°47'3 7.1
2017-Jun-23 09:30N 55°28' W 006°47'3 6.5
2017-Jun-23 09:00N 55°25' W 006°48'3 5.5
2017-Jun-23 08:23N 55°21' W 006°47'3 8.0
2017-Jun-23 08:00N 55°19' W 006°43'5 9.5
2017-Jun-23 07:30N 55°14' W 006°41'2 4.4
2017-Jun-23 07:00N 55°13' W 006°39'0 0.0
2017-Jun-23 06:30N 55°13' W 006°39'0 0.1
2017-Jun-23 06:00N 55°13' W 006°39'0 0.0
2017-Jun-23 05:27N 55°13' W 006°39'0 0.1
2017-Jun-23 05:00N 55°13' W 006°39'2 4.4
2017-Jun-23 04:29N 55°15' W 006°38'3 5.4
2017-Jun-23 03:59N 55°17' W 006°40'3 5.2
2017-Jun-23 03:29N 55°19' W 006°37'3 6.3
2017-Jun-23 03:00N 55°21' W 006°33'5 9.3
2017-Jun-23 02:30N 55°24' W 006°26'3 6.4
2017-Jun-23 02:00N 55°26' W 006°22'3 5.7
2017-Jun-23 01:30N 55°27' W 006°18'3 5.5
2017-Jun-23 01:00N 55°27' W 006°13'3 5.7
2017-Jun-23 00:30N 55°26' W 006°08'3 5.5
2017-Jun-23 00:00N 55°25' W 006°04'3 6.4
2017-Jun-22 23:30N 55°22' W 006°00'3 6.6
2017-Jun-22 23:00N 55°19' W 005°57'3 6.5
2017-Jun-22 22:30N 55°17' W 005°53'4 7.5
2017-Jun-22 22:00N 55°13' W 005°51'4 7.3
2017-Jun-22 21:30N 55°10' W 005°48'21 9.0
2017-Jun-22 19:13N 54°51' W 005°35'2 9.1
2017-Jun-22 19:00N 54°49' W 005°36'5 9.3
2017-Jun-22 18:30N 54°45' W 005°38'510.0
2017-Jun-22 18:00N 54°42' W 005°45'5 9.4
2017-Jun-22 17:30N 54°39' W 005°51'3 5.7
2017-Jun-22 17:00N 54°37' W 005°55'0 0.2
2017-Jun-22 16:27N 54°37' W 005°55'0 0.0
2017-Jun-22 16:00N 54°37' W 005°55'0 0.0
2017-Jun-22 15:09N 54°37' W 005°55'0 0.0
2017-Jun-22 14:57N 54°37' W 005°55'0 0.0
2017-Jun-22 13:45N 54°37' W 005°55'0 0.0
2017-Jun-22 13:30N 54°37' W 005°55'0 0.0
2017-Jun-22 12:54N 54°37' W 005°55'0 0.0
2017-Jun-22 12:24N 54°37' W 005°55'0 0.0
2017-Jun-22 12:00N 54°37' W 005°55'0 0.0
2017-Jun-22 11:30N 54°37' W 005°55'0 0.0
2017-Jun-22 11:00N 54°37' W 005°55'0 0.0
2017-Jun-22 10:15N 54°37' W 005°55'0 0.0
2017-Jun-22 10:00N 54°37' W 005°55'0 0.0
2017-Jun-22 09:24N 54°37' W 005°55'0 0.0
2017-Jun-22 08:09N 54°37' W 005°55'0 0.0
2017-Jun-22 07:51N 54°37' W 005°55'0 0.0
2017-Jun-22 07:24N 54°37' W 005°55'0 0.0
2017-Jun-22 07:00N 54°37' W 005°55'0 0.0
2017-Jun-22 06:27N 54°37' W 005°55'0 0.0
2017-Jun-22 05:46N 54°37' W 005°55'1 2.1
2017-Jun-22 05:29N 54°37' W 005°54'2 3.2
2017-Jun-22 04:58N 54°38' W 005°52'510.8
2017-Jun-22 04:31N 54°42' W 005°46'4 7.5
2017-Jun-22 04:00N 54°43' W 005°39'3 6.3
2017-Jun-22 03:30N 54°43' W 005°34'3 6.8
2017-Jun-22 03:00N 54°43' W 005°28'4 8.0
2017-Jun-22 02:30N 54°39' W 005°26'4 7.1
2017-Jun-22 02:00N 54°35' W 005°24'4 7.3
2017-Jun-22 01:30N 54°32' W 005°23'4 7.2
2017-Jun-22 01:00N 54°29' W 005°21'4 7.1
2017-Jun-22 00:31N 54°25' W 005°19'5 9.4
2017-Jun-22 00:01N 54°20' W 005°19'510.6
2017-Jun-21 23:30N 54°15' W 005°21'510.1
2017-Jun-21 23:00N 54°11' W 005°26'3 6.5
2017-Jun-21 22:31N 54°08' W 005°28'3 6.4
2017-Jun-21 22:00N 54°05' W 005°30'136 3.2
2017-Jun-20 03:58N 51°57' W 006°45'510.8
2017-Jun-20 03:30N 51°56' W 006°53'510.7
2017-Jun-20 03:00N 51°55' W 007°01'510.8
2017-Jun-20 02:30N 51°53' W 007°10'510.8
2017-Jun-20 02:00N 51°52' W 007°18'510.7
2017-Jun-20 01:30N 51°51' W 007°27'510.7
2017-Jun-20 01:00N 51°49' W 007°35'510.6
2017-Jun-20 00:30N 51°48' W 007°43'510.7
2017-Jun-20 00:00N 51°47' W 007°52'510.8
2017-Jun-19 23:30N 51°46' W 008°00'510.9
2017-Jun-19 23:00N 51°45' W 008°09'5 9.4
2017-Jun-19 22:30N 51°47' W 008°16'4 7.7
2017-Jun-19 22:00N 51°51' W 008°17'1 1.1
2017-Jun-19 21:30N 51°51' W 008°18'0 0.0
2017-Jun-19 20:53N 51°51' W 008°18'0 0.0
2017-Jun-19 20:29N 51°51' W 008°18'0 0.0
2017-Jun-19 19:59N 51°51' W 008°18'0 0.0
2017-Jun-19 19:29N 51°51' W 008°18'0 0.0
2017-Jun-19 18:59N 51°51' W 008°18'0 0.0
2017-Jun-19 18:29N 51°51' W 008°18'0 0.0
2017-Jun-19 17:59N 51°51' W 008°18'0 0.0
2017-Jun-19 17:29N 51°51' W 008°18'0 0.0
2017-Jun-19 16:59N 51°51' W 008°18'0 0.0
2017-Jun-19 16:29N 51°51' W 008°18'0 0.0
2017-Jun-19 15:59N 51°51' W 008°18'0 0.0
2017-Jun-19 15:29N 51°51' W 008°18'0 0.0
2017-Jun-19 14:56N 51°51' W 008°18'0 0.0
2017-Jun-19 14:29N 51°51' W 008°18'0 0.0
2017-Jun-19 13:29N 51°51' W 008°18'0 0.0
2017-Jun-19 12:59N 51°51' W 008°18'0 0.0
2017-Jun-19 12:29N 51°51' W 008°18'0 0.0
2017-Jun-19 11:59N 51°51' W 008°18'0 0.0
2017-Jun-19 11:30N 51°51' W 008°18'1 1.2
2017-Jun-19 11:00N 51°51' W 008°17'2 4.8
2017-Jun-19 10:30N 51°49' W 008°16'4 8.3
2017-Jun-19 10:00N 51°45' W 008°14'3 6.7
2017-Jun-19 09:30N 51°42' W 008°10'2 3.2
2017-Jun-19 09:00N 51°41' W 008°08'1 2.7
2017-Jun-19 08:30N 51°40' W 008°07'1 2.3
2017-Jun-19 08:00N 51°40' W 008°05'1 2.1
2017-Jun-19 07:30N 51°39' W 008°04'2 3.1
2017-Jun-19 07:00N 51°38' W 008°02'3 6.9
2017-Jun-19 06:30N 51°35' W 008°02'3 6.1
2017-Jun-19 06:00N 51°31' W 008°01'3 6.6
2017-Jun-19 05:30N 51°29' W 007°58'3 6.8
2017-Jun-19 05:00N 51°26' W 007°55'3 6.9
2017-Jun-19 04:30N 51°23' W 007°52'3 6.7
2017-Jun-19 04:00N 51°20' W 007°49'3 6.7
2017-Jun-19 03:30N 51°17' W 007°47'3 6.6
2017-Jun-19 03:00N 51°14' W 007°44'3 6.7
2017-Jun-19 02:30N 51°12' W 007°41'3 6.6
2017-Jun-19 02:00N 51°09' W 007°38'3 6.7
2017-Jun-19 01:30N 51°06' W 007°35'3 6.6
2017-Jun-19 01:00N 51°03' W 007°32'3 6.8
2017-Jun-19 00:30N 51°00' W 007°30'3 6.8
2017-Jun-19 00:00N 50°58' W 007°27'3 6.8
2017-Jun-18 23:30N 50°55' W 007°24'3 6.4
2017-Jun-18 22:59N 50°52' W 007°21'3 6.5
2017-Jun-18 22:30N 50°49' W 007°18'9 6.5
2017-Jun-18 21:02N 50°42' W 007°09'0 7.7
2017-Jun-18 21:00N 50°42' W 007°09'510.7
2017-Jun-18 20:30N 50°37' W 007°06'510.8
2017-Jun-18 20:00N 50°32' W 007°02'510.7
2017-Jun-18 19:30N 50°27' W 006°59'510.7
2017-Jun-18 19:00N 50°22' W 006°56'510.7
2017-Jun-18 18:30N 50°17' W 006°52'510.7
2017-Jun-18 18:00N 50°12' W 006°49'10 5.6
2017-Jun-18 16:17N 50°04' W 006°40'1 2.7
2017-Jun-18 15:59N 50°04' W 006°38'1 2.6
2017-Jun-18 15:30N 50°04' W 006°37'6 3.0
2017-Jun-18 13:38N 49°60' W 006°30'1 3.7
2017-Jun-18 13:30N 49°59' W 006°30'7 1.5
2017-Jun-18 08:26N 49°56' W 006°20'0 0.0
2017-Jun-18 07:23N 49°56' W 006°20'0 0.0
2017-Jun-18 06:56N 49°56' W 006°20'0 0.1
2017-Jun-18 06:28N 49°56' W 006°20'7 4.2
2017-Jun-18 04:44N 49°53' W 006°10'1 6.6
2017-Jun-18 04:30N 49°53' W 006°07'4 7.4
2017-Jun-18 04:00N 49°53' W 006°02'4 7.4
2017-Jun-18 03:30N 49°54' W 005°56'71 7.6
2017-Jun-17 18:07N 49°57' W 004°05'310.8
2017-Jun-17 17:52N 49°58' W 004°01'810.5
2017-Jun-17 17:09N 49°59' W 003°50'211.6
2017-Jun-17 17:00N 49°60' W 003°48'611.7
2017-Jun-17 16:30N 50°05' W 003°42'611.6
2017-Jun-17 16:00N 50°09' W 003°37'611.2
2017-Jun-17 15:30N 50°14' W 003°32'5 9.4
2017-Jun-17 15:00N 50°19' W 003°33'3 2.8
2017-Jun-17 14:00N 50°21' W 003°34'0 0.0
2017-Jun-17 13:30N 50°21' W 003°35'0 0.0
2017-Jun-17 12:48N 50°21' W 003°35'0 0.0
2017-Jun-17 12:21N 50°21' W 003°34'0 0.0
2017-Jun-17 12:00N 50°21' W 003°34'0 0.0
2017-Jun-17 11:21N 50°21' W 003°35'0 0.0
2017-Jun-17 10:57N 50°21' W 003°34'0 0.0
2017-Jun-17 10:27N 50°21' W 003°34'0 0.0
2017-Jun-17 09:57N 50°21' W 003°34'0 0.0
2017-Jun-17 09:27N 50°21' W 003°34'0 0.0
2017-Jun-17 08:54N 50°21' W 003°34'0 0.0
2017-Jun-17 08:27N 50°21' W 003°34'0 0.0
2017-Jun-17 07:57N 50°21' W 003°34'0 0.0
2017-Jun-17 07:09N 50°21' W 003°34'0 0.0
2017-Jun-17 06:54N 50°21' W 003°34'0 1.3
2017-Jun-17 06:30N 50°22' W 003°35'2 4.6
2017-Jun-17 06:00N 50°20' W 003°33'3 5.4
2017-Jun-17 05:30N 50°17' W 003°30'2 5.0
2017-Jun-17 05:00N 50°16' W 003°27'2 3.8
2017-Jun-17 04:31N 50°14' W 003°26'3 5.4
2017-Jun-17 04:00N 50°12' W 003°24'3 6.7
2017-Jun-17 03:30N 50°09' W 003°20'3 6.7
2017-Jun-17 03:00N 50°07' W 003°17'3 6.7
2017-Jun-17 02:30N 50°04' W 003°14'2 4.4
2017-Jun-17 02:00N 50°02' W 003°11'2 3.0
2017-Jun-17 01:30N 50°01' W 003°10'2 3.0
2017-Jun-17 01:00N 50°00' W 003°08'2 3.0
2017-Jun-17 00:30N 49°59' W 003°07'3 5.0
2017-Jun-17 00:00N 49°57' W 003°05'3 6.9
2017-Jun-16 23:30N 49°54' W 003°02'3 6.0
2017-Jun-16 23:00N 49°52' W 002°59'3 5.7
2017-Jun-16 22:30N 49°49' W 002°56'3 5.8
2017-Jun-16 22:01N 49°47' W 002°53'3 5.5
2017-Jun-16 21:30N 49°45' W 002°50'1 2.7
2017-Jun-16 21:00N 49°44' W 002°49'2 3.1
2017-Jun-16 20:31N 49°43' W 002°47'3 5.0
2017-Jun-16 19:56N 49°41' W 002°43'3 5.7
2017-Jun-16 19:30N 49°40' W 002°41'3 5.7
2017-Jun-16 19:00N 49°38' W 002°38'3 5.6
2017-Jun-16 18:29N 49°36' W 002°34'3 6.2
2017-Jun-16 18:01N 49°34' W 002°31'6 4.9
2017-Jun-16 16:45N 49°28' W 002°31'0 0.1
2017-Jun-16 16:24N 49°28' W 002°31'0 0.0
2017-Jun-16 16:00N 49°28' W 002°31'0 0.0
2017-Jun-16 15:30N 49°28' W 002°31'0 0.0
2017-Jun-16 15:00N 49°28' W 002°31'0 0.0
2017-Jun-16 14:24N 49°28' W 002°31'0 0.0
2017-Jun-16 13:12N 49°28' W 002°31'0 0.1
2017-Jun-16 13:00N 49°28' W 002°31'0 0.0
2017-Jun-16 12:24N 49°28' W 002°31'0 0.1
2017-Jun-16 12:00N 49°28' W 002°31'53 3.6
2017-Jun-15 21:28N 48°39' W 002°01'0 0.0
2017-Jun-15 14:53N 48°39' W 002°01'3 0.6
2017-Jun-15 09:11N 48°41' W 002°06'4 4.8
2017-Jun-15 08:20N 48°44' W 002°08'2 4.6
2017-Jun-15 07:52N 48°46' W 002°11'2 4.9
2017-Jun-15 07:30N 48°47' W 002°12'3 5.7
2017-Jun-15 07:01N 48°49' W 002°15'3 5.3
2017-Jun-15 06:31N 48°51' W 002°18'4 5.1
2017-Jun-15 05:48N 48°53' W 002°22'2 5.9
2017-Jun-15 05:28N 48°55' W 002°23'3 6.3
2017-Jun-15 04:58N 48°58' W 002°23'4 7.1
2017-Jun-15 04:25N 49°02' W 002°23'3 8.1
2017-Jun-15 04:00N 49°06' W 002°23'510.9
2017-Jun-15 03:30N 49°11' W 002°23'610.9
2017-Jun-15 03:00N 49°16' W 002°23'710.5
2017-Jun-15 02:22N 49°22' W 002°17'410.9
2017-Jun-15 01:59N 49°25' W 002°13'510.4
2017-Jun-15 01:28N 49°30' W 002°11'710.8
2017-Jun-15 00:46N 49°38' W 002°08'6 9.6
2017-Jun-15 00:10N 49°43' W 002°04'4 8.1
2017-Jun-14 23:40N 49°45' W 001°59'1 6.6
2017-Jun-14 23:28N 49°46' W 001°57'3 6.3
2017-Jun-14 23:00N 49°46' W 001°53'3 7.0
2017-Jun-14 22:30N 49°46' W 001°47'4 8.2
2017-Jun-14 22:00N 49°46' W 001°41'4 8.7
2017-Jun-14 21:30N 49°47' W 001°34'4 8.8
2017-Jun-14 21:00N 49°47' W 001°28'4 8.3
2017-Jun-14 20:30N 49°46' W 001°21'5 9.0
2017-Jun-14 20:00N 49°45' W 001°14'611.0
2017-Jun-14 19:30N 49°43' W 001°06'712.0
2017-Jun-14 18:58N 49°41' W 000°57'612.6
2017-Jun-14 18:29N 49°39' W 000°48'613.0
2017-Jun-14 18:00N 49°37' W 000°39'713.3
2017-Jun-14 17:30N 49°35' W 000°29'713.1
2017-Jun-14 17:00N 49°33' W 000°20'612.5
2017-Jun-14 16:30N 49°31' W 000°11'611.9
2017-Jun-14 16:00N 49°28' W 000°02'510.2
2017-Jun-14 15:30N 49°26' E 000°05'611.7
2017-Jun-14 15:01N 49°26' E 000°14'0 0.3
2017-Jun-14 13:58N 49°26' E 000°14'0 0.0
2017-Jun-14 13:28N 49°26' E 000°14'0 0.0
2017-Jun-14 12:58N 49°26' E 000°14'0 0.0
2017-Jun-14 12:28N 49°26' E 000°14'0 0.0
2017-Jun-14 11:58N 49°26' E 000°14'0 0.0
2017-Jun-14 11:28N 49°26' E 000°14'0 0.0
2017-Jun-14 10:58N 49°26' E 000°14'0 0.0
2017-Jun-14 10:28N 49°26' E 000°14'0 0.0
2017-Jun-14 09:58N 49°26' E 000°14'0 0.0
2017-Jun-14 09:28N 49°26' E 000°14'0 0.0
2017-Jun-14 08:58N 49°26' E 000°14'0 0.0
2017-Jun-14 08:28N 49°26' E 000°14'0 0.0
2017-Jun-14 07:58N 49°26' E 000°14'0 0.0
2017-Jun-14 07:28N 49°26' E 000°14'0 0.0
2017-Jun-14 06:58N 49°26' E 000°14'0 0.0
2017-Jun-14 06:28N 49°26' E 000°14'0 0.0
2017-Jun-14 05:58N 49°26' E 000°14'0 0.0
2017-Jun-14 05:28N 49°26' E 000°14'0 0.8
2017-Jun-14 05:00N 49°26' E 000°14'3 6.7
2017-Jun-14 04:31N 49°26' E 000°09'3 6.9
2017-Jun-14 04:01N 49°27' E 000°03'4 8.4
2017-Jun-14 03:31N 49°28' W 000°03'3 6.1
2017-Jun-14 03:00N 49°29' W 000°07'3 6.7
2017-Jun-14 02:30N 49°31' W 000°12'3 6.6
2017-Jun-14 02:00N 49°32' W 000°16'3 6.6
2017-Jun-14 01:30N 49°33' W 000°21'3 6.7
2017-Jun-14 01:01N 49°34' W 000°26'3 6.8
2017-Jun-14 00:31N 49°35' W 000°31'2 4.2
2017-Jun-14 00:00N 49°36' W 000°34'2 4.4
2017-Jun-13 23:31N 49°37' W 000°37'4 7.7
2017-Jun-13 23:00N 49°38' W 000°43'4 8.2
2017-Jun-13 22:31N 49°39' W 000°49'3 5.7
2017-Jun-13 22:00N 49°40' W 000°53'3 5.3
2017-Jun-13 21:31N 49°41' W 000°57'3 5.5
2017-Jun-13 21:01N 49°42' W 001°01'3 5.7
2017-Jun-13 20:31N 49°43' W 001°05'4 7.7
2017-Jun-13 20:00N 49°44' W 001°11'5 9.1
2017-Jun-13 19:31N 49°46' W 001°17'4 8.1
2017-Jun-13 19:01N 49°46' W 001°23'4 7.3
2017-Jun-13 18:30N 49°45' W 001°29'3 6.3
2017-Jun-13 18:00N 49°44' W 001°33'3 5.5
2017-Jun-13 17:31N 49°43' W 001°37'3 5.2
2017-Jun-13 17:01N 49°41' W 001°40'3 6.1
2017-Jun-13 16:31N 49°39' W 001°37'0 0.0
2017-Jun-13 16:00N 49°39' W 001°37'0 0.0
2017-Jun-13 15:30N 49°39' W 001°37'0 0.0
2017-Jun-13 15:00N 49°39' W 001°37'0 0.0
2017-Jun-13 14:30N 49°39' W 001°37'0 0.0
2017-Jun-13 13:30N 49°39' W 001°37'0 0.0
2017-Jun-13 12:57N 49°39' W 001°37'0 0.0
2017-Jun-13 12:30N 49°39' W 001°37'0 0.0
2017-Jun-13 12:00N 49°39' W 001°37'  

Dump ship's entire track history